createdAt,value
2023-03-17T00:01:44.978Z,67.63
2023-03-17T00:04:13.500Z,67.64
2023-03-17T00:06:42.659Z,68.04
2023-03-17T00:09:14.613Z,68.07
2023-03-17T00:11:42.940Z,69.46
2023-03-17T00:14:11.276Z,70.48
2023-03-17T00:16:43.730Z,70.22
2023-03-17T00:19:16.624Z,70.10
2023-03-17T00:21:45.171Z,69.70
2023-03-17T00:24:15.355Z,70.33
2023-03-17T00:26:43.670Z,69.43
2023-03-17T00:29:11.974Z,68.78
2023-03-17T00:31:41.334Z,68.80
2023-03-17T00:34:13.092Z,68.68
2023-03-17T00:36:49.685Z,69.11
2023-03-17T00:39:18.498Z,69.36
2023-03-17T00:41:50.329Z,70.06
2023-03-17T00:44:18.518Z,69.97
2023-03-17T00:46:50.765Z,69.83
2023-03-17T00:49:21.230Z,69.16
2023-03-17T00:51:50.611Z,69.67
2023-03-17T00:54:20.547Z,69.48
2023-03-17T00:56:49.234Z,70.62
2023-03-17T00:59:22.618Z,70.34
2023-03-17T01:01:52.085Z,70.48
2023-03-17T01:04:22.792Z,69.69
2023-03-17T01:06:52.134Z,69.16
2023-03-17T01:09:21.139Z,69.08
2023-03-17T01:11:49.367Z,69.40
2023-03-17T01:14:17.795Z,69.90
2023-03-17T01:16:45.849Z,70.03
2023-03-17T01:19:16.996Z,70.09
2023-03-17T01:21:45.624Z,70.08
2023-03-17T01:24:14.429Z,70.00
2023-03-17T01:26:42.284Z,69.44
2023-03-17T01:29:10.250Z,70.19
2023-03-17T01:31:39.205Z,70.72
2023-03-17T01:34:07.170Z,71.31
2023-03-17T01:36:37.497Z,71.75
2023-03-17T01:39:07.334Z,73.26
2023-03-17T01:41:40.010Z,74.35
2023-03-17T01:44:08.571Z,74.05
2023-03-17T01:46:37.562Z,74.16
2023-03-17T01:49:14.689Z,73.63
2023-03-17T01:51:52.649Z,74.37
2023-03-17T01:54:25.584Z,74.31
2023-03-17T01:57:01.091Z,73.76
2023-03-17T01:59:35.914Z,73.74
2023-03-17T02:02:09.117Z,73.45
2023-03-17T02:04:38.638Z,72.20
2023-03-17T02:07:08.670Z,72.25
2023-03-17T02:09:38.700Z,72.46
2023-03-17T02:12:09.218Z,72.19
2023-03-17T02:14:39.382Z,71.95
2023-03-17T02:17:07.848Z,71.32
2023-03-17T02:19:35.864Z,70.60
2023-03-17T02:22:05.609Z,70.87
2023-03-17T02:24:38.617Z,71.29
2023-03-17T02:27:11.936Z,72.07
2023-03-17T02:29:40.405Z,72.74
2023-03-17T02:32:10.916Z,73.19
2023-03-17T02:34:38.681Z,72.76
2023-03-17T02:37:08.799Z,73.78
2023-03-17T02:39:37.973Z,73.76
2023-03-17T02:42:07.060Z,73.62
2023-03-17T02:44:35.438Z,72.90
2023-03-17T02:47:04.330Z,72.59
2023-03-17T02:49:33.844Z,72.16
2023-03-17T02:52:02.675Z,71.79
2023-03-17T02:54:32.324Z,71.83
2023-03-17T02:57:01.029Z,71.54
2023-03-17T02:59:29.134Z,71.90
2023-03-17T03:01:57.448Z,71.23
2023-03-17T03:04:26.301Z,71.79
2023-03-17T03:06:55.186Z,71.05
2023-03-17T03:09:24.164Z,71.43
2023-03-17T03:11:53.367Z,70.87
2023-03-17T03:14:21.289Z,70.95
2023-03-17T03:16:49.789Z,71.33
2023-03-17T03:19:17.664Z,71.47
2023-03-17T03:21:46.165Z,70.99
2023-03-17T03:24:14.154Z,71.23
2023-03-17T03:26:42.479Z,71.51
2023-03-17T03:29:11.649Z,70.95
2023-03-17T03:31:39.547Z,71.05
2023-03-17T03:34:07.543Z,71.17
2023-03-17T03:36:35.453Z,71.44
2023-03-17T03:39:03.277Z,71.26
2023-03-17T03:41:31.203Z,70.46
2023-03-17T03:43:59.046Z,70.56
2023-03-17T03:46:29.079Z,71.16
2023-03-17T03:48:56.950Z,71.22
2023-03-17T03:51:24.982Z,71.30
2023-03-17T03:53:52.883Z,71.82
2023-03-17T03:56:20.779Z,71.16
2023-03-17T03:58:48.548Z,71.04
2023-03-17T04:01:16.527Z,70.56
2023-03-17T04:03:47.209Z,70.58
2023-03-17T04:06:16.221Z,70.98
2023-03-17T04:08:44.436Z,70.92
2023-03-17T04:11:12.397Z,70.95
2023-03-17T04:13:40.212Z,70.82
2023-03-17T04:16:08.814Z,71.39
2023-03-17T04:18:36.964Z,70.82
2023-03-17T04:21:07.115Z,71.29
2023-03-17T04:23:35.509Z,71.30
2023-03-17T04:26:04.079Z,71.17
2023-03-17T04:28:32.456Z,70.90
2023-03-17T04:31:00.575Z,70.92
2023-03-17T04:33:28.777Z,71.16
2023-03-17T04:35:56.960Z,71.73
2023-03-17T04:38:26.144Z,72.20
2023-03-17T04:40:54.411Z,72.10
2023-03-17T04:43:22.205Z,71.62
2023-03-17T04:45:50.060Z,71.80
2023-03-17T04:48:17.944Z,71.74
2023-03-17T04:50:47.764Z,72.21
2023-03-17T04:53:15.607Z,72.00
2023-03-17T04:55:45.185Z,71.84
2023-03-17T04:58:21.117Z,71.78
2023-03-17T05:00:56.108Z,71.96
2023-03-17T05:03:28.153Z,71.55
2023-03-17T05:05:56.477Z,71.53
2023-03-17T05:08:24.399Z,71.39
2023-03-17T05:10:53.659Z,71.30
2023-03-17T05:13:22.095Z,71.81
2023-03-17T05:15:51.593Z,71.89
2023-03-17T05:18:20.926Z,72.51
2023-03-17T05:20:48.789Z,72.42
2023-03-17T05:23:17.004Z,72.22
2023-03-17T05:25:45.742Z,73.37
2023-03-17T05:28:15.012Z,72.84
2023-03-17T05:30:44.030Z,73.33
2023-03-17T05:33:11.904Z,72.93
2023-03-17T05:35:40.782Z,73.50
2023-03-17T05:38:08.730Z,73.59
2023-03-17T05:40:36.998Z,73.46
2023-03-17T05:43:06.101Z,74.97
2023-03-17T05:45:35.527Z,74.93
2023-03-17T05:48:04.301Z,75.88
2023-03-17T05:50:32.801Z,75.69
2023-03-17T05:53:00.942Z,75.76
2023-03-17T05:55:28.963Z,75.90
2023-03-17T05:57:56.939Z,75.17
2023-03-17T06:00:29.299Z,75.73
2023-03-17T06:02:59.048Z,76.25
2023-03-17T06:05:27.234Z,75.89
2023-03-17T06:07:56.569Z,75.00
2023-03-17T06:10:25.014Z,74.56
2023-03-17T06:12:52.918Z,75.81
2023-03-17T06:15:21.340Z,75.82
2023-03-17T06:17:49.324Z,75.76
2023-03-17T06:20:19.225Z,75.25
2023-03-17T06:23:02.692Z,74.31
2023-03-17T06:25:32.032Z,73.29
2023-03-17T06:28:02.433Z,73.46
2023-03-17T06:30:32.722Z,73.04
2023-03-17T06:33:01.152Z,73.33
2023-03-17T06:35:30.947Z,72.47
2023-03-17T06:37:59.098Z,72.44
2023-03-17T06:40:26.938Z,72.14
2023-03-17T06:42:54.886Z,72.54
2023-03-17T06:45:23.080Z,72.39
2023-03-17T06:47:51.174Z,71.67
2023-03-17T06:50:19.516Z,71.56
2023-03-17T06:52:48.720Z,71.43
2023-03-17T06:55:17.535Z,71.08
2023-03-17T06:57:45.872Z,71.36
2023-03-17T07:00:15.837Z,70.79
2023-03-17T07:02:44.206Z,70.88
2023-03-17T07:05:13.876Z,69.76
2023-03-17T07:07:42.453Z,69.13
2023-03-17T07:10:13.743Z,68.53
2023-03-17T07:12:41.571Z,68.07
2023-03-17T07:15:11.040Z,66.98
2023-03-17T07:17:42.210Z,66.72
2023-03-17T07:20:11.660Z,66.66
2023-03-17T07:22:39.605Z,65.41
2023-03-17T07:25:09.694Z,64.46
2023-03-17T07:27:38.972Z,63.48
2023-03-17T07:30:08.289Z,63.15
2023-03-17T07:32:36.260Z,62.68
2023-03-17T07:35:04.961Z,62.08
2023-03-17T07:37:32.943Z,62.18
2023-03-17T07:40:01.209Z,61.13
2023-03-17T07:42:30.147Z,60.70
2023-03-17T07:44:59.665Z,59.94
2023-03-17T07:47:27.531Z,59.61
2023-03-17T07:49:55.449Z,59.00
2023-03-17T07:52:23.335Z,58.64
2023-03-17T07:54:52.112Z,58.29
2023-03-17T07:57:20.079Z,57.24
2023-03-17T07:59:47.940Z,56.84
2023-03-17T08:02:19.631Z,56.73
2023-03-17T08:04:48.002Z,55.30
2023-03-17T08:07:18.624Z,55.24
2023-03-17T08:09:48.209Z,55.02
2023-03-17T08:12:20.035Z,54.26
2023-03-17T08:14:48.565Z,53.08
2023-03-17T08:17:18.079Z,51.86
2023-03-17T08:19:46.777Z,51.49
2023-03-17T08:22:15.205Z,52.94
2023-03-17T08:24:43.242Z,51.36
2023-03-17T08:27:11.211Z,50.87
2023-03-17T08:29:39.163Z,50.00
2023-03-17T08:32:08.014Z,51.09
2023-03-17T08:34:37.646Z,49.63
2023-03-17T08:37:07.004Z,49.99
2023-03-17T08:39:36.301Z,50.53
2023-03-17T08:42:06.182Z,48.89
2023-03-17T08:44:34.395Z,49.65
2023-03-17T08:47:02.325Z,48.27
2023-03-17T08:49:31.113Z,47.01
2023-03-17T08:52:00.984Z,48.81
2023-03-17T08:54:29.186Z,47.53
2023-03-17T08:56:57.132Z,47.06
2023-03-17T08:59:27.687Z,44.80
2023-03-17T09:01:55.738Z,43.79
2023-03-17T09:04:24.028Z,43.81
2023-03-17T09:07:02.735Z,42.37
2023-03-17T09:09:34.544Z,41.15
2023-03-17T09:12:04.468Z,41.14
2023-03-17T09:14:42.884Z,41.62
2023-03-17T09:17:12.168Z,42.05
2023-03-17T09:19:40.537Z,40.17
2023-03-17T09:22:08.727Z,40.66
2023-03-17T09:24:38.210Z,40.03
2023-03-17T09:27:06.445Z,40.27
2023-03-17T09:29:35.054Z,41.80
2023-03-17T09:32:03.706Z,42.28
2023-03-17T09:34:32.898Z,40.85
2023-03-17T09:37:01.003Z,41.12
2023-03-17T09:39:29.019Z,41.21
2023-03-17T09:42:19.904Z,39.93
2023-03-17T09:45:00.114Z,40.95
2023-03-17T09:47:49.877Z,40.25
2023-03-17T09:50:26.869Z,39.72
2023-03-17T09:52:58.661Z,37.78
2023-03-17T09:55:30.788Z,39.49
2023-03-17T09:58:03.496Z,39.72
2023-03-17T10:00:32.743Z,37.52
2023-03-17T10:03:02.402Z,39.16
2023-03-17T10:05:32.659Z,37.77
2023-03-17T10:08:28.942Z,38.68
2023-03-17T10:11:03.424Z,37.29
2023-03-17T10:13:46.495Z,35.91
2023-03-17T10:16:17.745Z,37.70
2023-03-17T10:18:54.301Z,37.91
2023-03-17T10:21:26.799Z,35.17
2023-03-17T10:23:56.353Z,37.33
2023-03-17T10:26:31.678Z,39.03
2023-03-17T10:29:04.163Z,36.92
2023-03-17T10:31:35.886Z,36.58
2023-03-17T10:34:15.680Z,36.44
2023-03-17T10:36:47.343Z,37.22
2023-03-17T10:39:19.662Z,37.80
2023-03-17T10:41:57.406Z,38.63
2023-03-17T10:44:44.252Z,38.25
2023-03-17T10:47:30.396Z,36.51
2023-03-17T10:49:59.815Z,37.66
2023-03-17T10:52:30.141Z,36.24
2023-03-17T10:55:03.771Z,35.98
2023-03-17T10:57:32.881Z,34.42
2023-03-17T11:00:05.111Z,35.89
2023-03-17T11:02:44.282Z,35.61
2023-03-17T11:05:20.587Z,34.49
2023-03-17T11:07:48.851Z,34.86
2023-03-17T11:10:21.008Z,35.52
2023-03-17T11:12:51.343Z,35.58
2023-03-17T11:15:21.132Z,34.70
2023-03-17T11:17:56.873Z,36.60
2023-03-17T11:20:45.762Z,35.26
2023-03-17T11:23:24.186Z,36.47
2023-03-17T11:26:03.065Z,35.37
2023-03-17T11:28:37.029Z,33.99
2023-03-17T11:31:13.132Z,35.12
2023-03-17T11:33:49.695Z,34.84
2023-03-17T11:36:31.622Z,34.49
2023-03-17T11:39:05.707Z,32.92
2023-03-17T11:41:46.067Z,34.65
2023-03-17T11:44:46.540Z,33.65
2023-03-17T11:47:28.929Z,33.69
2023-03-17T11:50:04.832Z,33.73
2023-03-17T11:52:44.518Z,33.63
2023-03-17T11:55:21.674Z,33.39
2023-03-17T11:57:55.182Z,34.12
2023-03-17T12:00:29.406Z,34.56
2023-03-17T12:03:03.364Z,33.27
2023-03-17T12:05:31.995Z,33.57
2023-03-17T12:08:04.230Z,33.46
2023-03-17T12:10:39.800Z,34.60
2023-03-17T12:13:16.636Z,33.56
2023-03-17T12:15:50.822Z,34.58
2023-03-17T12:18:25.292Z,33.49
2023-03-17T12:21:08.751Z,33.20
2023-03-17T12:23:48.150Z,32.86
2023-03-17T12:26:21.199Z,33.40
2023-03-17T12:28:55.627Z,33.58
2023-03-17T12:31:28.168Z,33.49
2023-03-17T12:34:06.466Z,33.08
2023-03-17T12:36:38.089Z,32.44
2023-03-17T12:39:12.686Z,32.67
2023-03-17T12:42:00.160Z,33.20
2023-03-17T12:44:45.888Z,33.20
2023-03-17T12:47:38.026Z,33.89
2023-03-17T12:50:28.596Z,34.55
2023-03-17T12:53:33.664Z,34.43
2023-03-17T12:56:11.985Z,34.33
2023-03-17T12:58:47.021Z,32.96
2023-03-17T13:01:24.261Z,33.69
2023-03-17T13:04:03.553Z,33.20
2023-03-17T13:06:42.027Z,32.75
2023-03-17T13:09:35.398Z,34.31
2023-03-17T13:12:05.000Z,35.06
2023-03-17T13:14:43.955Z,35.70
2023-03-17T13:17:33.760Z,35.65
2023-03-17T13:20:16.119Z,36.01
2023-03-17T13:23:03.971Z,35.03
2023-03-17T13:25:35.499Z,35.95
2023-03-17T13:28:27.100Z,36.54
2023-03-17T13:31:18.184Z,37.67
2023-03-17T13:33:50.689Z,37.40
2023-03-17T13:36:35.254Z,38.35
2023-03-17T13:39:33.452Z,35.75
2023-03-17T13:42:18.571Z,35.84
2023-03-17T13:45:07.338Z,34.68
2023-03-17T13:47:40.100Z,36.91
2023-03-17T13:50:14.371Z,37.94
2023-03-17T13:52:47.785Z,39.36
2023-03-17T13:55:43.018Z,38.64
2023-03-17T13:58:26.082Z,38.47
2023-03-17T14:01:05.263Z,39.02
2023-03-17T14:03:48.643Z,38.64
2023-03-17T14:06:21.445Z,35.77
2023-03-17T14:09:03.655Z,36.30
2023-03-17T14:11:56.914Z,36.97
2023-03-17T14:14:54.474Z,35.09
2023-03-17T14:17:46.843Z,34.81
2023-03-17T14:20:40.261Z,33.36
2023-03-17T14:23:27.499Z,35.31
2023-03-17T14:26:14.303Z,33.68
2023-03-17T14:29:01.545Z,33.67
2023-03-17T14:31:56.928Z,34.04
2023-03-17T14:34:44.035Z,32.96
2023-03-17T14:37:38.492Z,34.05
2023-03-17T14:40:49.710Z,32.96
2023-03-17T14:43:47.434Z,32.92
2023-03-17T14:46:47.194Z,31.38
2023-03-17T14:49:41.787Z,33.07
2023-03-17T14:52:47.836Z,32.21
2023-03-17T14:55:45.221Z,31.81
2023-03-17T14:58:41.149Z,31.94
2023-03-17T15:01:36.524Z,30.94
2023-03-17T15:04:24.487Z,30.87
2023-03-17T15:07:10.210Z,31.48
2023-03-17T15:09:54.965Z,30.47
2023-03-17T15:12:37.118Z,36.85
2023-03-17T15:15:35.197Z,36.06
2023-03-17T15:18:25.531Z,32.32
2023-03-17T15:21:11.969Z,31.72
2023-03-17T15:23:54.750Z,32.34
2023-03-17T15:26:42.479Z,36.97
2023-03-17T15:29:27.604Z,38.24
2023-03-17T15:32:17.080Z,36.22
2023-03-17T15:35:00.111Z,34.86
2023-03-17T15:37:52.847Z,33.93
2023-03-17T15:40:33.635Z,36.11
2023-03-17T15:43:23.275Z,36.28
2023-03-17T15:46:17.978Z,36.54
2023-03-17T15:48:56.214Z,35.69
2023-03-17T15:51:47.391Z,37.00
2023-03-17T15:54:32.742Z,37.49
2023-03-17T15:57:22.418Z,38.20
2023-03-17T16:00:04.831Z,38.51
2023-03-17T16:02:53.123Z,38.37
2023-03-17T16:05:35.558Z,38.81
2023-03-17T16:08:16.580Z,38.55
2023-03-17T16:11:32.597Z,37.78
2023-03-17T16:14:51.736Z,38.46
2023-03-17T16:17:37.825Z,40.21
2023-03-17T16:22:15.911Z,41.77
2023-03-17T16:34:54.740Z,42.07
2023-03-17T16:37:48.660Z,42.46
2023-03-17T16:55:50.626Z,46.08
2023-03-17T16:59:38.153Z,47.62
2023-03-17T17:08:26.633Z,49.05
2023-03-17T17:11:47.249Z,48.75
2023-03-17T17:14:43.460Z,48.88
2023-03-17T17:21:17.891Z,50.12
2023-03-17T17:23:46.344Z,49.64
2023-03-17T17:26:18.730Z,49.74
2023-03-17T17:28:47.245Z,49.81
2023-03-17T17:31:16.032Z,50.36
2023-03-17T17:33:45.303Z,50.60
2023-03-17T17:36:16.479Z,51.06
2023-03-17T17:38:47.858Z,50.66
2023-03-17T17:41:17.270Z,50.80
2023-03-17T17:43:47.271Z,51.10
2023-03-17T17:46:19.507Z,51.47
2023-03-17T17:48:51.068Z,51.05
2023-03-17T17:51:23.299Z,50.45
2023-03-17T17:53:51.742Z,50.59
2023-03-17T17:56:20.349Z,50.77
2023-03-17T17:58:50.196Z,50.91
2023-03-17T18:01:44.546Z,51.20
2023-03-17T18:04:17.063Z,51.46
2023-03-17T18:06:45.998Z,51.07
2023-03-17T18:09:15.145Z,50.19
2023-03-17T18:11:43.171Z,50.78
2023-03-17T18:14:14.128Z,50.73
2023-03-17T18:17:11.056Z,51.25
2023-03-17T18:29:10.594Z,53.85
2023-03-17T18:32:15.884Z,54.02
2023-03-17T18:53:26.961Z,55.22
2023-03-17T18:55:55.849Z,54.77
2023-03-17T18:58:35.277Z,54.01
2023-03-17T19:01:06.325Z,54.38
2023-03-17T19:03:35.119Z,56.42
2023-03-17T19:06:09.959Z,56.98
2023-03-17T19:08:39.543Z,57.20
2023-03-17T19:11:09.057Z,59.38
2023-03-17T19:13:37.869Z,58.13
2023-03-17T19:16:07.554Z,58.03
2023-03-17T19:18:36.632Z,58.11
2023-03-17T19:21:05.112Z,58.24
2023-03-17T19:23:33.791Z,57.67
2023-03-17T19:26:04.678Z,57.67
2023-03-17T19:28:32.671Z,57.54
2023-03-17T19:31:01.127Z,58.03
2023-03-17T19:33:29.762Z,60.00
2023-03-17T19:35:59.983Z,61.92
2023-03-17T19:38:28.485Z,60.40
2023-03-17T19:40:56.483Z,59.87
2023-03-17T19:43:39.531Z,59.08
2023-03-17T19:46:10.509Z,59.56
2023-03-17T19:48:38.676Z,62.66
2023-03-17T19:51:07.988Z,63.83
2023-03-17T19:53:37.421Z,62.93
2023-03-17T19:56:06.443Z,62.14
2023-03-17T19:58:36.008Z,62.61
2023-03-17T20:01:04.129Z,63.31
2023-03-17T20:03:33.567Z,65.26
2023-03-17T20:06:06.025Z,63.60
2023-03-17T20:08:34.358Z,62.39
2023-03-17T20:11:02.436Z,61.95
2023-03-17T20:13:30.534Z,62.86
2023-03-17T20:16:02.783Z,62.67
2023-03-17T20:18:31.012Z,64.08
2023-03-17T20:21:00.613Z,67.36
2023-03-17T20:23:28.633Z,66.85
2023-03-17T20:25:57.038Z,65.51
2023-03-17T20:28:25.337Z,64.69
2023-03-17T20:30:53.914Z,64.46
2023-03-17T20:33:23.561Z,65.92
2023-03-17T20:35:51.663Z,65.38
2023-03-17T20:38:19.762Z,65.57
2023-03-17T20:40:48.277Z,64.72
2023-03-17T20:43:17.036Z,64.61
2023-03-17T20:45:45.711Z,64.89
2023-03-17T20:48:14.453Z,64.87
2023-03-17T20:50:49.857Z,64.63
2023-03-17T20:53:17.809Z,64.54
2023-03-17T20:55:47.185Z,66.25
2023-03-17T20:58:15.035Z,65.58
2023-03-17T21:00:42.903Z,65.32
2023-03-17T21:03:10.813Z,65.43
2023-03-17T21:05:39.465Z,65.44
2023-03-17T21:08:08.770Z,65.24
2023-03-17T21:10:36.945Z,65.01
2023-03-17T21:13:05.099Z,65.62
2023-03-17T21:15:33.060Z,66.62
2023-03-17T21:18:01.121Z,66.49
2023-03-17T21:20:29.516Z,66.25
2023-03-17T21:22:57.805Z,65.97
2023-03-17T21:25:28.135Z,65.84
2023-03-17T21:27:56.479Z,66.19
2023-03-17T21:30:24.351Z,66.54
2023-03-17T21:32:53.669Z,66.55
2023-03-17T21:35:21.766Z,67.19
2023-03-17T21:37:50.489Z,70.07
2023-03-17T21:40:19.002Z,69.14
2023-03-17T21:42:49.315Z,70.63
2023-03-17T21:45:17.974Z,70.65
2023-03-17T21:47:45.897Z,72.15
2023-03-17T21:50:17.103Z,72.44
2023-03-17T21:52:45.792Z,70.96
2023-03-17T21:55:14.459Z,69.52
2023-03-17T21:57:42.987Z,68.89
2023-03-17T22:00:13.934Z,68.81
2023-03-17T22:02:42.846Z,68.75
2023-03-17T22:05:11.434Z,69.02
2023-03-17T22:07:41.334Z,71.19
2023-03-17T22:10:10.230Z,73.33
2023-03-17T22:12:38.930Z,72.32
2023-03-17T22:15:08.847Z,71.08
2023-03-17T22:17:38.157Z,70.15
2023-03-17T22:20:09.114Z,68.90
2023-03-17T22:22:37.145Z,68.94
2023-03-17T22:25:06.248Z,69.41
2023-03-17T22:27:34.614Z,70.27
2023-03-17T22:30:02.671Z,69.59
2023-03-17T22:32:30.869Z,69.41
2023-03-17T22:35:00.286Z,71.32
2023-03-17T22:37:28.244Z,71.75
2023-03-17T22:39:56.063Z,71.03
2023-03-17T22:42:23.844Z,70.53
2023-03-17T22:44:51.782Z,72.50
2023-03-17T22:47:19.722Z,72.88
2023-03-17T22:49:47.582Z,71.43
2023-03-17T22:52:16.828Z,70.77
2023-03-17T22:54:44.752Z,70.61
2023-03-17T22:57:12.690Z,70.73
2023-03-17T22:59:40.529Z,72.05
2023-03-17T23:02:09.045Z,72.97
2023-03-17T23:04:37.025Z,72.79
2023-03-17T23:07:05.326Z,72.99
2023-03-17T23:09:34.855Z,71.71
2023-03-17T23:12:02.824Z,71.23
2023-03-17T23:14:30.832Z,72.81
2023-03-17T23:16:58.764Z,73.49
2023-03-17T23:19:27.380Z,73.32
2023-03-17T23:21:55.307Z,73.39
2023-03-17T23:24:23.218Z,71.80
2023-03-17T23:26:53.477Z,71.31
2023-03-17T23:29:21.394Z,70.49
2023-03-17T23:31:51.417Z,71.01
2023-03-17T23:34:19.635Z,72.09
2023-03-17T23:36:47.606Z,71.93
2023-03-17T23:39:15.634Z,74.07
2023-03-17T23:41:44.903Z,73.70
2023-03-17T23:44:14.851Z,72.18
2023-03-17T23:46:44.930Z,73.28
2023-03-17T23:49:13.264Z,72.79
2023-03-17T23:51:41.710Z,72.09
2023-03-17T23:54:10.218Z,72.19
2023-03-17T23:56:40.908Z,71.91
2023-03-17T23:59:10.696Z,73.30
